Time;durP1;ratioP1;P1;durP2;ratioP2;P2;SDS_P1;SDS_P2;PMS_P1;PMS_P2;Temp;Humidity;BMP_temperature;BMP_pressure;BME280_temperature;BME280_humidity;BME280_pressure;Samples;Min_cycle;Max_cycle;Signal;HPM_P1;HPM_P2
2021/12/24 00:01:54;;;;;;;;;;;5.80;99.90;;;;;;5072816;28;19966;-76
2021/12/24 00:04:21;;;;;;;;;;;5.80;99.90;;;;;;5069601;28;19920;-80
2021/12/24 00:06:48;;;;;;;;;;;5.90;99.90;;;;;;5071285;28;20350;-80
2021/12/24 00:09:20;;;;;;;;;;;5.80;99.90;;;;;;5070755;28;20499;-74
2021/12/24 00:11:46;;;;;;;;;;;5.90;99.90;;;;;;5061001;28;20496;-79
2021/12/24 00:14:12;;;;;;;;;;;6.00;99.90;;;;;;5084279;28;19924;-72
2021/12/24 00:16:52;;;;;;;;;;;5.90;99.90;;;;;;5060277;28;19998;-81
2021/12/24 00:35:39;;;;;;;;;;;6.10;99.90;;;;;;5073447;28;19920;-81
2021/12/24 00:38:07;;;;;;;;;;;6.20;99.90;;;;;;5075523;28;19966;-81
2021/12/24 00:40:35;;;;;;;;;;;6.10;99.90;;;;;;5083170;28;19976;-80
2021/12/24 00:43:00;;;;;;;;;;;6.20;99.90;;;;;;5064861;28;19926;-81
2021/12/24 00:45:28;;;;;;;;;;;6.30;99.90;;;;;;5082393;28;19920;-80
2021/12/24 00:47:54;;;;;;;;;;;6.30;99.90;;;;;;5087354;28;19930;-79
2021/12/24 00:50:24;;;;;;;;;;;6.20;99.90;;;;;;5076589;28;19920;-80
2021/12/24 00:52:56;;;;;;;;;;;6.20;99.90;;;;;;5074845;28;19965;-81
2021/12/24 00:55:23;;;;;;;;;;;6.30;99.90;;;;;;5061245;28;19994;-79
2021/12/24 00:57:50;;;;;;;;;;;6.30;99.90;;;;;;5092167;28;19973;-80
2021/12/24 01:00:24;;;;;;;;;;;6.30;99.90;;;;;;5079871;28;19965;-80
2021/12/24 01:02:50;;;;;;;;;;;6.40;99.90;;;;;;5072272;28;19926;-80
2021/12/24 01:05:16;;;;;;;;;;;6.40;99.90;;;;;;5071261;28;20355;-82
2021/12/24 01:07:44;;;;;;;;;;;6.40;99.90;;;;;;5072744;28;20268;-81
2021/12/24 01:10:11;;;;;;;;;;;6.40;99.90;;;;;;5062901;28;20464;-82
2021/12/24 01:12:36;;;;;;;;;;;6.50;99.90;;;;;;5087188;28;20274;-82
2021/12/24 01:15:02;;;;;;;;;;;6.40;99.90;;;;;;5040314;28;19946;-79
2021/12/24 01:17:43;;;;;;;;;;;6.60;99.90;;;;;;5080960;28;19920;-82
2021/12/24 01:20:23;;;;;;;;;;;6.50;99.90;;;;;;5095026;28;19927;-80
2021/12/24 01:23:27;;;;;;;;;;;6.60;99.90;;;;;;5089999;28;19920;-81
2021/12/24 01:25:50;;;;;;;;;;;6.70;99.90;;;;;;5090316;28;19920;-80
2021/12/24 01:44:26;;;;;;;;;;;6.80;99.90;;;;;;5072317;28;20342;-82
2021/12/24 01:46:52;;;;;;;;;;;6.80;99.90;;;;;;5085711;28;19931;-81
2021/12/24 01:49:18;;;;;;;;;;;6.80;99.90;;;;;;5089040;28;20007;-81
2021/12/24 01:51:43;;;;;;;;;;;6.80;99.90;;;;;;5081586;28;20370;-81
2021/12/24 01:54:10;;;;;;;;;;;6.70;99.90;;;;;;5071555;28;20297;-81
2021/12/24 01:56:36;;;;;;;;;;;6.90;99.90;;;;;;5084610;28;19982;-82
2021/12/24 01:59:02;;;;;;;;;;;6.90;99.90;;;;;;5073874;28;20358;-78
2021/12/24 02:01:27;;;;;;;;;;;6.90;99.90;;;;;;5082652;28;19924;-82
2021/12/24 02:03:53;;;;;;;;;;;6.90;99.90;;;;;;5075836;28;19925;-80
2021/12/24 02:06:18;;;;;;;;;;;6.90;99.90;;;;;;5085534;28;19949;-82
2021/12/24 02:08:44;;;;;;;;;;;7.00;99.90;;;;;;5087688;28;19959;-80
2021/12/24 02:11:10;;;;;;;;;;;7.00;99.90;;;;;;5093988;28;20023;-81
2021/12/24 02:13:38;;;;;;;;;;;7.00;99.90;;;;;;5078812;28;19927;-81
2021/12/24 02:16:39;;;;;;;;;;;7.10;99.90;;;;;;5046823;28;19921;-81
2021/12/24 02:29:50;;;;;;;;;;;7.30;99.90;;;;;;5056473;28;19920;-79
2021/12/24 02:32:16;;;;;;;;;;;7.30;99.90;;;;;;5088289;28;20364;-81
2021/12/24 02:34:42;;;;;;;;;;;7.30;99.90;;;;;;5080821;28;19921;-80
2021/12/24 02:37:08;;;;;;;;;;;7.40;99.90;;;;;;5080906;28;19920;-82
2021/12/24 02:39:33;;;;;;;;;;;7.30;99.90;;;;;;5069120;28;19924;-82
2021/12/24 02:42:13;;;;;;;;;;;7.30;99.90;;;;;;5081583;28;19924;-81
2021/12/24 02:44:39;;;;;;;;;;;7.40;99.90;;;;;;5069079;28;19920;-81
2021/12/24 02:47:15;;;;;;;;;;;7.30;99.90;;;;;;5063799;28;19927;-81
2021/12/24 02:54:57;;;;;;;;;;;7.40;99.90;;;;;;5078100;28;19920;-80
2021/12/24 02:57:27;;;;;;;;;;;7.40;99.90;;;;;;5085471;28;19927;-81
2021/12/24 02:59:59;;;;;;;;;;;7.60;99.90;;;;;;5067032;28;20011;-82
2021/12/24 03:02:25;;;;;;;;;;;7.50;99.90;;;;;;5090570;28;20327;-80
2021/12/24 03:04:50;;;;;;;;;;;7.70;99.90;;;;;;5087978;28;20019;-81
2021/12/24 03:07:16;;;;;;;;;;;7.70;99.90;;;;;;5062348;28;19931;-81
2021/12/24 03:09:41;;;;;;;;;;;7.70;99.90;;;;;;5071121;28;19965;-82
2021/12/24 03:12:07;;;;;;;;;;;7.70;99.90;;;;;;5073788;28;20397;-82
2021/12/24 03:14:33;;;;;;;;;;;7.70;99.90;;;;;;5070480;28;19938;-82
2021/12/24 03:17:01;;;;;;;;;;;7.80;99.90;;;;;;5082900;28;20038;-82
2021/12/24 03:19:30;;;;;;;;;;;7.80;99.90;;;;;;5087190;28;20409;-82
2021/12/24 03:22:01;;;;;;;;;;;7.90;99.90;;;;;;5089546;28;19927;-81
2021/12/24 03:26:52;;;;;;;;;;;7.80;99.90;;;;;;5082040;28;20362;-81
2021/12/24 03:29:18;;;;;;;;;;;7.90;99.90;;;;;;5079805;28;20592;-74
2021/12/24 03:31:44;;;;;;;;;;;7.90;99.90;;;;;;5084282;28;19927;-80
2021/12/24 03:34:10;;;;;;;;;;;8.00;99.90;;;;;;5090020;28;19938;-83
2021/12/24 03:36:36;;;;;;;;;;;7.90;99.90;;;;;;5067275;28;19920;-81
2021/12/24 03:39:02;;;;;;;;;;;7.90;99.90;;;;;;5061651;28;19920;-80
2021/12/24 03:41:28;;;;;;;;;;;8.00;99.90;;;;;;5072703;28;19928;-83
2021/12/24 03:43:53;;;;;;;;;;;8.00;99.90;;;;;;5080277;28;19923;-77
2021/12/24 03:46:26;;;;;;;;;;;8.00;99.90;;;;;;5085358;28;20011;-81
2021/12/24 03:48:59;;;;;;;;;;;7.90;99.90;;;;;;5085886;28;19943;-82
2021/12/24 03:56:46;;;;;;;;;;;8.10;99.90;;;;;;5087033;28;19920;-82
2021/12/24 03:59:13;;;;;;;;;;;8.20;99.90;;;;;;5053714;28;19924;-80
2021/12/24 04:01:39;;;;;;;;;;;8.10;99.90;;;;;;5088272;28;19920;-81
2021/12/24 04:04:04;;;;;;;;;;;8.00;99.90;;;;;;5058282;28;20344;-81
2021/12/24 04:06:30;;;;;;;;;;;8.20;99.90;;;;;;5073924;28;20019;-82
2021/12/24 04:08:56;;;;;;;;;;;8.10;99.90;;;;;;5084515;28;19920;-83
2021/12/24 04:11:21;;;;;;;;;;;8.20;99.90;;;;;;5073114;28;19924;-83
2021/12/24 04:13:47;;;;;;;;;;;8.10;99.90;;;;;;5071241;28;20014;-82
2021/12/24 04:16:13;;;;;;;;;;;8.10;99.90;;;;;;5080496;28;19927;-74
2021/12/24 04:19:35;;;;;;;;;;;8.30;99.90;;;;;;5087718;28;20682;-79
2021/12/24 04:26:56;;;;;;;;;;;8.30;99.90;;;;;;5087363;28;20305;-81
2021/12/24 04:29:21;;;;;;;;;;;8.20;99.90;;;;;;5057512;28;19929;-83
2021/12/24 04:31:55;;;;;;;;;;;8.10;99.90;;;;;;5078351;28;20074;-82
2021/12/24 04:34:26;;;;;;;;;;;8.20;99.90;;;;;;5081448;28;20438;-81
2021/12/24 05:01:21;;;;;;;;;;;8.20;99.90;;;;;;5087806;28;19920;-77
2021/12/24 05:03:47;;;;;;;;;;;8.30;99.90;;;;;;5090301;28;20473;-81
2021/12/24 05:08:56;;;;;;;;;;;8.20;99.90;;;;;;5077312;28;20308;-82
2021/12/24 05:11:23;;;;;;;;;;;8.10;99.90;;;;;;5060900;28;20278;-81
2021/12/24 05:13:49;;;;;;;;;;;8.20;99.90;;;;;;5066802;28;19920;-81
2021/12/24 05:16:22;;;;;;;;;;;8.20;99.90;;;;;;5087185;28;20012;-79
2021/12/24 05:21:33;;;;;;;;;;;8.10;99.90;;;;;;5073035;28;19924;-81
2021/12/24 05:23:59;;;;;;;;;;;8.10;99.90;;;;;;5083463;28;19920;-81
2021/12/24 05:26:25;;;;;;;;;;;8.30;99.90;;;;;;5060166;28;20354;-77
2021/12/24 05:28:50;;;;;;;;;;;8.30;99.90;;;;;;5082077;28;19920;-81
2021/12/24 05:31:16;;;;;;;;;;;8.10;99.90;;;;;;5074809;28;19920;-82
2021/12/24 05:33:41;;;;;;;;;;;8.30;99.90;;;;;;5068905;28;19926;-81
2021/12/24 05:36:07;;;;;;;;;;;8.20;99.90;;;;;;5066628;28;20045;-81
2021/12/24 05:38:33;;;;;;;;;;;8.30;99.90;;;;;;5082091;28;20018;-82
2021/12/24 05:40:58;;;;;;;;;;;8.10;99.90;;;;;;5084864;28;20374;-81
2021/12/24 05:43:24;;;;;;;;;;;8.20;99.90;;;;;;5072542;28;19949;-80
2021/12/24 05:45:49;;;;;;;;;;;8.20;99.90;;;;;;5075032;28;20010;-82
2021/12/24 05:48:15;;;;;;;;;;;8.20;99.90;;;;;;5079693;28;20490;-79
2021/12/24 05:50:40;;;;;;;;;;;8.20;99.90;;;;;;5077752;28;19920;-80
2021/12/24 05:53:06;;;;;;;;;;;8.20;99.90;;;;;;5055395;28;20019;-82
2021/12/24 05:55:31;;;;;;;;;;;8.20;99.90;;;;;;5083990;28;19966;-82
2021/12/24 05:57:57;;;;;;;;;;;8.20;99.90;;;;;;5065287;28;19924;-80
2021/12/24 06:00:22;;;;;;;;;;;8.10;99.90;;;;;;5068216;28;19920;-80
2021/12/24 06:02:48;;;;;;;;;;;8.20;99.90;;;;;;5035603;28;19966;-82
2021/12/24 06:05:13;;;;;;;;;;;8.20;99.90;;;;;;5051301;28;19935;-77
2021/12/24 06:07:39;;;;;;;;;;;8.10;99.90;;;;;;5042186;28;19912;-81
2021/12/24 06:10:05;;;;;;;;;;;8.10;99.90;;;;;;5071683;28;20451;-81
2021/12/24 06:12:30;;;;;;;;;;;8.00;99.90;;;;;;5089012;28;20301;-80
2021/12/24 06:15:02;;;;;;;;;;;8.10;99.90;;;;;;5063898;28;19920;-80
2021/12/24 06:17:28;;;;;;;;;;;8.20;99.90;;;;;;5067357;28;19935;-79
2021/12/24 06:19:53;;;;;;;;;;;8.10;99.90;;;;;;5075147;28;19920;-73
2021/12/24 06:22:19;;;;;;;;;;;8.10;99.90;;;;;;5081024;28;19966;-80
2021/12/24 06:24:45;;;;;;;;;;;8.20;99.90;;;;;;5061711;28;19931;-79
2021/12/24 06:27:11;;;;;;;;;;;8.10;99.90;;;;;;5051383;28;20011;-80
2021/12/24 06:29:36;;;;;;;;;;;8.10;99.90;;;;;;5039680;28;20381;-80
2021/12/24 06:32:02;;;;;;;;;;;8.10;99.90;;;;;;5093031;28;19924;-81
2021/12/24 06:34:30;;;;;;;;;;;8.10;99.90;;;;;;5081967;28;19999;-82
2021/12/24 06:36:56;;;;;;;;;;;8.20;99.90;;;;;;5074417;28;19920;-81
2021/12/24 06:39:21;;;;;;;;;;;8.00;99.90;;;;;;5079121;28;19924;-81
2021/12/24 06:41:47;;;;;;;;;;;8.20;99.90;;;;;;5087930;28;19924;-81
2021/12/24 06:44:13;;;;;;;;;;;8.00;99.90;;;;;;5075409;28;19920;-72
2021/12/24 06:46:40;;;;;;;;;;;8.10;99.90;;;;;;5054955;28;19963;-80
2021/12/24 06:49:06;;;;;;;;;;;8.00;99.90;;;;;;5078609;28;19921;-81
2021/12/24 06:51:31;;;;;;;;;;;8.00;99.90;;;;;;5052196;28;19942;-82
2021/12/24 06:53:57;;;;;;;;;;;7.90;99.90;;;;;;5065709;28;20378;-84
2021/12/24 06:56:22;;;;;;;;;;;7.90;99.90;;;;;;5082196;28;19920;-81
2021/12/24 06:58:48;;;;;;;;;;;8.10;99.90;;;;;;5079214;28;19943;-83
2021/12/24 07:01:14;;;;;;;;;;;8.00;99.90;;;;;;5078760;28;19924;-78
2021/12/24 07:03:39;;;;;;;;;;;7.80;99.90;;;;;;5087305;28;20023;-81
2021/12/24 07:06:05;;;;;;;;;;;8.00;99.90;;;;;;5076065;28;19986;-81
2021/12/24 07:08:31;;;;;;;;;;;8.00;99.90;;;;;;5089049;28;20433;-81
2021/12/24 07:10:57;;;;;;;;;;;7.90;99.90;;;;;;5063317;28;20339;-81
2021/12/24 07:13:22;;;;;;;;;;;7.90;99.90;;;;;;5070568;28;19920;-83
2021/12/24 07:15:48;;;;;;;;;;;7.80;99.90;;;;;;5079370;28;19920;-82
2021/12/24 07:18:13;;;;;;;;;;;7.90;99.90;;;;;;5100364;28;19930;-73
2021/12/24 07:20:39;;;;;;;;;;;7.90;99.90;;;;;;5072240;28;19920;-82
2021/12/24 07:23:04;;;;;;;;;;;7.90;99.90;;;;;;5058671;28;19939;-81
2021/12/24 07:25:30;;;;;;;;;;;8.00;99.90;;;;;;5052684;28;19935;-81
2021/12/24 07:27:56;;;;;;;;;;;8.00;99.90;;;;;;5087996;28;19920;-81
2021/12/24 07:30:22;;;;;;;;;;;7.90;99.90;;;;;;5097780;28;19931;-81
2021/12/24 07:32:47;;;;;;;;;;;7.90;99.90;;;;;;5080476;28;19967;-84
2021/12/24 07:35:13;;;;;;;;;;;8.00;99.90;;;;;;5056660;28;20922;-76
2021/12/24 07:37:39;;;;;;;;;;;7.90;99.90;;;;;;5060088;28;19966;-84
2021/12/24 07:40:05;;;;;;;;;;;8.00;99.90;;;;;;5061922;28;19927;-82
2021/12/24 07:42:31;;;;;;;;;;;8.00;99.90;;;;;;5054793;28;19924;-83
2021/12/24 07:44:56;;;;;;;;;;;8.00;99.90;;;;;;5053330;28;19920;-81
2021/12/24 07:47:31;;;;;;;;;;;7.90;99.90;;;;;;5079411;28;19919;-83
2021/12/24 07:50:03;;;;;;;;;;;8.00;99.90;;;;;;5081123;28;19920;-82
2021/12/24 07:52:29;;;;;;;;;;;7.90;99.90;;;;;;5076071;28;19962;-81
2021/12/24 07:54:55;;;;;;;;;;;8.00;99.90;;;;;;5057945;28;19920;-80
2021/12/24 07:57:21;;;;;;;;;;;8.00;99.90;;;;;;5060573;28;20316;-83
2021/12/24 07:59:47;;;;;;;;;;;7.80;99.90;;;;;;5068777;28;19920;-81
2021/12/24 08:02:15;;;;;;;;;;;7.80;99.90;;;;;;5071712;28;19928;-75
2021/12/24 08:04:41;;;;;;;;;;;7.80;99.90;;;;;;5075308;28;19927;-86
2021/12/24 08:07:07;;;;;;;;;;;7.90;99.90;;;;;;5073016;28;19920;-82
2021/12/24 08:09:33;;;;;;;;;;;8.00;99.90;;;;;;5083919;28;19958;-81
2021/12/24 08:11:59;;;;;;;;;;;7.90;99.90;;;;;;5071623;28;19920;-80
2021/12/24 08:14:24;;;;;;;;;;;7.80;99.90;;;;;;5072263;28;19920;-83
2021/12/24 08:16:50;;;;;;;;;;;7.90;99.90;;;;;;5071200;28;19920;-83
2021/12/24 08:19:18;;;;;;;;;;;8.00;99.90;;;;;;5053673;28;19927;-81
2021/12/24 08:21:45;;;;;;;;;;;8.00;99.90;;;;;;5081067;28;19924;-82
2021/12/24 08:24:11;;;;;;;;;;;7.90;99.90;;;;;;5073869;28;20243;-82
2021/12/24 08:26:36;;;;;;;;;;;8.00;99.90;;;;;;5090499;28;19920;-87
2021/12/24 08:29:02;;;;;;;;;;;7.80;99.90;;;;;;5090420;28;19923;-80
2021/12/24 08:31:29;;;;;;;;;;;7.80;99.90;;;;;;5089943;28;20466;-82
2021/12/24 08:33:54;;;;;;;;;;;7.80;99.90;;;;;;5065615;28;19924;-81
2021/12/24 08:36:20;;;;;;;;;;;7.90;99.90;;;;;;5057390;28;19928;-84
2021/12/24 08:38:45;;;;;;;;;;;7.80;99.90;;;;;;5072278;28;20397;-84
2021/12/24 08:41:11;;;;;;;;;;;8.00;99.90;;;;;;5059848;28;20011;-82
2021/12/24 08:43:36;;;;;;;;;;;7.90;99.90;;;;;;5075966;28;19920;-81
2021/12/24 08:46:02;;;;;;;;;;;8.00;99.90;;;;;;5084952;28;19924;-80
2021/12/24 08:48:27;;;;;;;;;;;8.00;99.90;;;;;;5081393;28;19920;-79
2021/12/24 08:50:53;;;;;;;;;;;7.90;99.90;;;;;;5043196;28;20296;-87
2021/12/24 08:53:19;;;;;;;;;;;8.10;99.90;;;;;;5058399;28;19931;-86
2021/12/24 08:55:45;;;;;;;;;;;8.10;99.90;;;;;;5064964;28;19927;-87
2021/12/24 08:58:10;;;;;;;;;;;8.10;99.90;;;;;;5061227;28;19920;-85
2021/12/24 09:00:36;;;;;;;;;;;7.90;99.90;;;;;;5069339;28;20457;-85
2021/12/24 09:03:02;;;;;;;;;;;7.90;99.90;;;;;;5078901;28;19920;-79
2021/12/24 09:05:28;;;;;;;;;;;8.00;99.90;;;;;;5080132;28;19982;-86
2021/12/24 09:07:54;;;;;;;;;;;8.10;99.90;;;;;;5090230;28;20011;-84
2021/12/24 09:10:19;;;;;;;;;;;8.00;99.90;;;;;;5053995;28;20479;-82
2021/12/24 09:12:45;;;;;;;;;;;8.00;99.90;;;;;;5089614;28;19920;-78
2021/12/24 09:15:11;;;;;;;;;;;8.10;99.90;;;;;;5076676;28;19965;-82
2021/12/24 09:17:37;;;;;;;;;;;8.00;99.90;;;;;;5057490;28;20007;-82
2021/12/24 09:20:03;;;;;;;;;;;8.00;99.90;;;;;;5063967;28;19963;-84
2021/12/24 09:22:33;;;;;;;;;;;8.10;99.90;;;;;;5066604;28;20007;-81
2021/12/24 09:24:58;;;;;;;;;;;7.90;99.90;;;;;;5058226;28;19961;-82
2021/12/24 09:27:24;;;;;;;;;;;8.10;99.90;;;;;;5054574;28;19920;-83
2021/12/24 09:29:49;;;;;;;;;;;7.90;99.90;;;;;;5058452;28;20370;-84
2021/12/24 09:32:15;;;;;;;;;;;7.90;99.90;;;;;;5061366;28;20015;-80
2021/12/24 09:34:41;;;;;;;;;;;7.90;99.90;;;;;;5066922;28;20003;-82
2021/12/24 09:37:07;;;;;;;;;;;8.00;99.90;;;;;;5060095;28;20393;-85
2021/12/24 09:39:33;;;;;;;;;;;8.00;99.90;;;;;;5061527;28;20793;-83
2021/12/24 09:42:00;;;;;;;;;;;7.90;99.90;;;;;;5068248;28;19920;-84
2021/12/24 09:44:25;;;;;;;;;;;8.10;99.90;;;;;;5048054;28;19921;-83
2021/12/24 09:46:51;;;;;;;;;;;7.80;99.90;;;;;;5070605;28;20007;-83
2021/12/24 09:49:17;;;;;;;;;;;8.00;99.90;;;;;;5065531;28;19920;-81
2021/12/24 09:51:44;;;;;;;;;;;7.90;99.90;;;;;;5062369;28;19920;-72
2021/12/24 09:54:13;;;;;;;;;;;8.00;99.90;;;;;;5059095;28;19921;-82
2021/12/24 09:56:39;;;;;;;;;;;7.90;99.90;;;;;;5051859;28;19967;-82
2021/12/24 09:59:04;;;;;;;;;;;7.90;99.90;;;;;;5042245;28;20333;-83
2021/12/24 10:01:34;;;;;;;;;;;8.00;99.90;;;;;;5063121;28;19924;-82
2021/12/24 10:04:07;;;;;;;;;;;7.80;99.90;;;;;;5058421;28;19924;-79
2021/12/24 10:06:33;;;;;;;;;;;8.00;99.90;;;;;;5060762;28;19924;-86
2021/12/24 10:09:00;;;;;;;;;;;7.80;99.90;;;;;;5079030;28;19920;-81
2021/12/24 10:11:29;;;;;;;;;;;7.70;99.90;;;;;;5076113;28;19920;-80
2021/12/24 10:14:03;;;;;;;;;;;7.60;99.90;;;;;;5071562;28;20335;-80
2021/12/24 10:16:29;;;;;;;;;;;7.30;99.90;;;;;;5056638;28;19964;-80
2021/12/24 10:18:55;;;;;;;;;;;7.10;99.90;;;;;;5069795;28;19982;-81
2021/12/24 10:21:25;;;;;;;;;;;6.90;99.90;;;;;;5057972;28;20005;-86
2021/12/24 10:23:55;;;;;;;;;;;6.70;99.90;;;;;;5046606;28;20015;-78
2021/12/24 10:26:25;;;;;;;;;;;6.60;99.90;;;;;;5071254;28;20323;-78
2021/12/24 10:28:51;;;;;;;;;;;6.80;99.90;;;;;;5059812;28;20364;-77
2021/12/24 10:31:17;;;;;;;;;;;6.80;99.90;;;;;;5052188;28;19921;-76
2021/12/24 10:34:02;;;;;;;;;;;6.60;99.90;;;;;;5039612;28;19947;-76
2021/12/24 10:36:28;;;;;;;;;;;6.50;99.90;;;;;;5058598;28;19966;-77
2021/12/24 10:38:54;;;;;;;;;;;6.50;99.90;;;;;;5064355;28;19933;-74
2021/12/24 10:41:19;;;;;;;;;;;6.50;99.90;;;;;;5065829;28;19998;-78
2021/12/24 10:43:45;;;;;;;;;;;6.60;99.90;;;;;;5063182;28;20378;-77
2021/12/24 10:46:15;;;;;;;;;;;6.50;99.90;;;;;;5066255;28;19921;-77
2021/12/24 10:48:58;;;;;;;;;;;6.40;99.90;;;;;;5056697;28;19921;-78
2021/12/24 10:51:52;;;;;;;;;;;6.50;99.90;;;;;;5051359;28;20370;-77
2021/12/24 10:54:09;;;;;;;;;;;6.60;99.90;;;;;;5067032;28;19920;-79
2021/12/24 10:56:35;;;;;;;;;;;6.30;99.90;;;;;;5056975;28;19922;-79
2021/12/24 10:59:01;;;;;;;;;;;6.50;99.90;;;;;;5062303;28;20015;-78
2021/12/24 11:01:26;;;;;;;;;;;6.20;99.90;;;;;;5059940;28;20019;-77
2021/12/24 11:03:52;;;;;;;;;;;6.10;99.90;;;;;;5068484;28;19920;-77
2021/12/24 11:06:20;;;;;;;;;;;6.30;99.90;;;;;;5069238;28;19931;-77
2021/12/24 11:08:52;;;;;;;;;;;6.30;99.90;;;;;;5065807;28;19985;-79
2021/12/24 11:11:18;;;;;;;;;;;6.20;99.90;;;;;;5063281;28;20032;-85
2021/12/24 11:13:44;;;;;;;;;;;6.20;99.90;;;;;;5056238;28;19920;-81
2021/12/24 11:16:11;;;;;;;;;;;6.40;99.90;;;;;;5060259;28;20377;-85
2021/12/24 11:18:39;;;;;;;;;;;6.30;99.90;;;;;;5076777;28;19920;-83
2021/12/24 11:21:06;;;;;;;;;;;6.30;99.90;;;;;;5088935;28;19934;-85
2021/12/24 11:26:21;;;;;;;3.50;1.67;;;6.50;99.90;;;;;;5109301;27;1913845;-82
2021/12/24 11:28:47;;;;;;;1.88;1.50;;;6.40;99.90;;;;;;5154291;27;20074;-80
2021/12/24 11:31:17;;;;;;;3.60;1.20;;;6.30;99.90;;;;;;5132236;27;20045;-80
2021/12/24 11:33:44;;;;;;;1.97;1.80;;;6.30;99.90;;;;;;5136629;27;20043;-72
2021/12/24 11:36:13;;;;;;;1.40;1.08;;;6.30;99.90;;;;;;5148805;27;20091;-78
2021/12/24 11:38:43;;;;;;;2.80;1.95;;;6.40;99.90;;;;;;5155200;27;20114;-83
2021/12/24 11:41:12;;;;;;;1.83;1.30;;;6.30;99.90;;;;;;5151500;27;20054;-86
2021/12/24 11:43:41;;;;;;;1.80;1.70;;;6.30;99.90;;;;;;5159175;27;20122;-87
2021/12/24 11:46:15;;;;;;;3.10;2.03;;;6.50;99.90;;;;;;5134395;27;20039;-85
2021/12/24 11:48:41;;;;;;;2.92;2.10;;;6.40;99.90;;;;;;5136169;27;20046;-87
2021/12/24 11:51:19;;;;;;;2.33;1.83;;;6.30;99.90;;;;;;5132178;27;20074;-82
2021/12/24 11:53:46;;;;;;;1.92;1.73;;;6.30;99.90;;;;;;5147098;27;20423;-83
2021/12/24 11:56:14;;;;;;;2.90;2.53;;;6.30;99.90;;;;;;5161871;27;20070;-86
2021/12/24 11:58:54;;;;;;;2.13;1.92;;;6.40;99.90;;;;;;5148496;27;20050;-80
2021/12/24 12:01:25;;;;;;;2.85;2.15;;;6.40;99.90;;;;;;5151938;27;20039;-86
2021/12/24 12:03:52;;;;;;;;;;;6.30;99.90;;;;;;5152440;27;20043;-87
2021/12/24 12:06:33;;;;;;;2.45;2.08;;;6.40;99.90;;;;;;5153074;27;19923;-87
2021/12/24 12:09:04;;;;;;;2.47;2.28;;;6.40;99.90;;;;;;5148604;27;20117;-81
2021/12/24 12:11:32;;;;;;;2.40;2.20;;;6.40;99.90;;;;;;5147664;27;20050;-84
2021/12/24 12:14:01;;;;;;;4.05;3.65;;;6.30;99.90;;;;;;5128643;27;20127;-83
2021/12/24 12:16:38;;;;;;;2.95;2.05;;;6.30;99.90;;;;;;5160554;27;20046;-83
2021/12/24 12:19:16;;;;;;;3.58;2.63;;;6.50;99.90;;;;;;5168754;27;20038;-82
2021/12/24 12:22:11;;;;;;;3.10;2.80;;;6.50;99.90;;;;;;5162380;27;20061;-83
2021/12/24 12:24:59;;;;;;;2.95;2.55;;;6.40;99.90;;;;;;5098282;28;20059;-89
2021/12/24 12:27:37;;;;;;;2.78;2.28;;;6.30;99.90;;;;;;5112672;27;20039;-83
2021/12/24 12:30:24;;;;;;;4.00;2.10;;;6.40;99.90;;;;;;5108157;28;20039;-84
2021/12/24 12:32:52;;;;;;;2.67;2.47;;;6.40;99.90;;;;;;5120724;27;20554;-86
2021/12/24 12:35:18;;;;;;;3.70;2.47;;;6.30;99.90;;;;;;5110492;27;20055;-86
2021/12/24 12:37:53;;;;;;;4.53;3.85;;;6.40;99.90;;;;;;5114592;28;20024;-82
2021/12/24 12:40:19;;;;;;;9.20;4.05;;;6.40;99.90;;;;;;5114539;28;20095;-81
2021/12/24 12:42:54;;;;;;;6.38;2.30;;;6.50;99.90;;;;;;5114755;28;20043;-83
2021/12/24 12:45:23;;;;;;;4.65;3.05;;;6.60;99.90;;;;;;5095755;28;20047;-85
2021/12/24 12:47:54;;;;;;;4.22;3.15;;;6.70;99.90;;;;;;5080445;28;20036;-84
2021/12/24 12:50:21;;;;;;;4.18;2.95;;;6.60;99.90;;;;;;5119968;28;20028;-83
2021/12/24 12:52:47;;;;;;;5.68;5.10;;;6.70;99.90;;;;;;5112548;28;20040;-83
2021/12/24 12:55:34;;;;;;;5.80;4.60;;;6.80;99.90;;;;;;5113882;28;20100;-75
2021/12/24 12:58:19;;;;;;;3.20;2.65;;;6.80;99.90;;;;;;5113329;28;20115;-83
2021/12/24 13:01:05;;;;;;;9.48;4.20;;;6.80;99.90;;;;;;5115194;28;20060;-83
2021/12/24 13:03:32;;;;;;;3.65;2.78;;;6.90;99.90;;;;;;5120406;28;20144;-83
2021/12/24 13:06:01;;;;;;;4.70;2.83;;;6.80;99.90;;;;;;5134700;28;20064;-80
2021/12/24 13:08:33;;;;;;;4.03;2.67;;;6.80;99.90;;;;;;5101477;28;20052;-84
2021/12/24 13:11:14;;;;;;;4.50;2.90;;;7.00;99.90;;;;;;5103147;28;20054;-83
2021/12/24 13:13:56;;;;;;;2.85;2.25;;;6.90;99.90;;;;;;5096406;28;20156;-84
2021/12/24 13:16:37;;;;;;;2.70;2.42;;;7.00;99.90;;;;;;5110599;28;20052;-84
2021/12/24 13:24:49;;;;;;;4.13;3.17;;;7.00;99.90;;;;;;5093794;28;20490;-85
2021/12/24 13:27:16;;;;;;;3.60;2.03;;;6.90;99.90;;;;;;5090563;28;20478;-77
2021/12/24 13:29:42;;;;;;;4.43;3.15;;;7.10;99.90;;;;;;5092424;28;20050;-85
2021/12/24 13:32:08;;;;;;;13.10;4.13;;;7.00;99.90;;;;;;5101903;28;20047;-82
2021/12/24 13:34:36;;;;;;;8.15;6.15;;;7.20;99.90;;;;;;5105803;28;20050;-86
2021/12/24 13:37:09;;;;;;;6.28;3.58;;;7.10;99.90;;;;;;5109232;28;20063;-74
2021/12/24 13:39:43;;;;;;;10.18;4.25;;;7.10;99.90;;;;;;5099948;28;20130;-85
2021/12/24 13:42:09;;;;;;;5.18;3.13;;;7.10;99.90;;;;;;5096567;28;20044;-86
2021/12/24 13:44:38;;;;;;;20.30;3.92;;;7.10;99.90;;;;;;5098276;28;20130;-85
2021/12/24 13:47:17;;;;;;;11.20;3.97;;;7.10;99.90;;;;;;5112014;28;20093;-86
2021/12/24 13:55:45;;;;;;;4.47;2.85;;;6.90;99.90;;;;;;5093269;28;20436;-87
2021/12/24 13:58:20;;;;;;;5.97;2.88;;;7.00;99.90;;;;;;5098482;28;20040;-85
2021/12/24 14:00:51;;;;;;;5.90;1.90;;;7.00;99.90;;;;;;5078117;28;20397;-83
2021/12/24 14:03:26;;;;;;;3.75;1.92;;;6.90;99.90;;;;;;5100059;28;20367;-85
2021/12/24 14:05:54;;;;;;;3.40;2.75;;;6.90;99.90;;;;;;5098704;28;20157;-85
2021/12/24 14:08:22;;;;;;;3.13;2.13;;;6.90;99.90;;;;;;5110224;28;20104;-83
2021/12/24 14:10:59;;;;;;;5.07;2.65;;;6.90;99.90;;;;;;5107393;28;20036;-86
2021/12/24 14:13:28;;;;;;;7.28;2.10;;;6.90;99.90;;;;;;5110407;28;20036;-85
2021/12/24 14:18:48;;;;;;;4.13;2.08;;;6.90;99.90;;;;;;5091869;28;20788;-85
2021/12/24 14:23:46;;;;;;;2.67;2.40;;;6.90;99.90;;;;;;5102968;28;20040;-82
2021/12/24 14:26:13;;;;;;;3.58;1.77;;;6.80;99.90;;;;;;5108009;27;20096;-81
2021/12/24 14:28:50;;;;;;;3.85;2.30;;;6.80;99.90;;;;;;5130779;27;20423;-82
2021/12/24 14:31:15;;;;;;;5.15;1.50;;;6.80;99.90;;;;;;5126451;27;20049;-82
2021/12/24 14:33:46;;;;;;;3.10;1.65;;;6.80;99.90;;;;;;5115137;27;20039;-81
2021/12/24 14:36:19;;;;;;;5.68;2.35;;;6.70;99.90;;;;;;5129864;27;20042;-80
2021/12/24 14:38:45;;;;;;;9.55;5.63;;;6.70;99.90;;;;;;5092215;28;20058;-80
2021/12/24 14:41:17;;;;;;;10.43;5.88;;;6.80;99.90;;;;;;5109336;27;20043;-80
2021/12/24 14:43:42;;;;;;;11.68;6.53;;;6.70;99.90;;;;;;5092341;28;20047;-71
2021/12/24 14:46:08;;;;;;;11.38;4.97;;;6.80;99.90;;;;;;5111247;27;20040;-80
2021/12/24 14:48:36;;;;;;;2.13;1.25;;;6.80;99.90;;;;;;5078591;28;20619;-79
2021/12/24 14:51:05;;;;;;;3.00;0.88;;;6.60;99.90;;;;;;5111309;27;20443;-73
2021/12/24 14:53:36;;;;;;;3.15;0.68;;;6.50;99.90;;;;;;5091824;28;20036;-80
2021/12/24 14:56:13;;;;;;;4.50;1.23;;;6.40;99.90;;;;;;5093764;28;20039;-76
2021/12/24 14:58:42;;;;;;;5.28;1.20;;;6.60;99.90;;;;;;5110849;27;20505;-79
2021/12/24 15:01:10;;;;;;;5.57;3.78;;;6.30;99.90;;;;;;5123962;27;20091;-79
2021/12/24 15:03:38;;;;;;;10.18;6.10;;;6.10;99.90;;;;;;5114860;27;20043;-81
2021/12/24 15:06:24;;;;;;;42.33;31.23;;;6.00;99.90;;;;;;5107307;27;20047;-78
2021/12/24 15:08:50;;;;;;;29.85;22.08;;;5.90;99.90;;;;;;5125080;27;20027;-78
2021/12/24 15:11:18;;;;;;;4.50;2.60;;;5.90;99.90;;;;;;5121386;27;20443;-81
2021/12/24 15:14:01;;;;;;;5.93;1.75;;;5.90;99.90;;;;;;5105170;27;20057;-79
2021/12/24 15:16:28;;;;;;;0.80;0.77;;;5.80;99.90;;;;;;5110436;27;20505;-81
2021/12/24 15:18:56;;;;;;;5.20;2.30;;;5.70;99.90;;;;;;5130482;27;20082;-78
2021/12/24 15:21:23;;;;;;;5.95;2.00;;;5.80;99.90;;;;;;5091871;28;20126;-82
2021/12/24 15:23:51;;;;;;;6.00;1.92;;;5.80;99.90;;;;;;5107243;28;20031;-80
2021/12/24 15:26:17;;;;;;;4.88;0.75;;;5.80;99.90;;;;;;5130212;27;20055;-82
2021/12/24 15:28:46;;;;;;;6.35;1.75;;;5.70;99.90;;;;;;5129851;27;20043;-78
2021/12/24 15:31:13;;;;;;;4.53;0.73;;;5.70;99.90;;;;;;5131078;27;20039;-81
2021/12/24 15:33:39;;;;;;;6.57;1.55;;;5.70;99.90;;;;;;5110941;27;20039;-78
2021/12/24 15:36:06;;;;;;;3.92;1.40;;;5.70;99.90;;;;;;5127796;27;20035;-78
2021/12/24 15:38:32;;;;;;;0.85;0.40;;;5.70;99.90;;;;;;5091812;28;20449;-82
2021/12/24 15:40:58;;;;;;;4.95;0.63;;;5.80;99.90;;;;;;5100630;27;20096;-79
2021/12/24 15:43:24;;;;;;;4.22;0.88;;;5.70;99.90;;;;;;5107588;27;20051;-80
2021/12/24 15:45:54;;;;;;;3.78;0.77;;;5.70;99.90;;;;;;5109854;28;20408;-80
2021/12/24 15:48:21;;;;;;;5.93;0.75;;;5.70;99.90;;;;;;5114532;27;20040;-81
2021/12/24 15:50:46;;;;;;;5.15;1.83;;;5.80;99.90;;;;;;5110463;28;20036;-81
2021/12/24 15:53:12;;;;;;;11.77;7.78;;;5.70;99.90;;;;;;5110926;28;20049;-73
2021/12/24 15:55:39;;;;;;;13.75;7.13;;;5.70;99.90;;;;;;5123632;27;20094;-80
2021/12/24 15:58:09;;;;;;;13.32;4.40;;;5.80;99.90;;;;;;5112405;28;20035;-81